NCAR-RAP Real-Time Weather Data

Output produced by METARs form (17 November 2017  17:46 UTC)
found at http://weather.rap.ucar.edu/surface/
 
Conditions at: KHQZ observed 17 November 2017  16:50 UTC
Temperature: 24.0°C (75°F)
Dewpoint: 19.0°C (66°F) [RH = 74%]
Pressure (altimeter): 29.94 inches Hg (1014.0 mb)
Winds: from the S (170 degrees) at 17 MPH (15 knots; 7.8 m/s)
gusting to 23 MPH (20 knots; 10.4 m/s)
Visibility: 10 or more miles (16+ km)
Ceiling: 2100 feet AGL
Clouds: broken clouds at 2100 feet AGL
broken clouds at 2700 feet AGL
overcast cloud deck at 3700 feet AGL
Present Weather: no significant weather observed at this time
KHQZ 171650Z 17015G20KT 10SM BKN021 BKN027 OVC037 24/19 A2994